Time;durP1;ratioP1;P1;durP2;ratioP2;P2;SDS_P1;SDS_P2;PMS_P1;PMS_P2;Temp;Humidity;BMP_temperature;BMP_pressure;BME280_temperature;BME280_humidity;BME280_pressure;Samples;Min_cycle;Max_cycle;Signal;HPM_P1;HPM_P2
2022/09/25 00:00:23;;;;;;;16.83;2.55;;;9.20;99.90;;;;;;4771954;29;20055;-86
2022/09/25 00:02:49;;;;;;;11.65;2.10;;;9.20;99.90;;;;;;4771833;29;20587;-86
2022/09/25 00:05:15;;;;;;;18.05;2.20;;;9.10;99.90;;;;;;4771520;29;20112;-87
2022/09/25 00:07:41;;;;;;;10.00;2.00;;;9.10;99.90;;;;;;4772227;29;20489;-86
2022/09/25 00:10:07;;;;;;;32.10;4.57;;;9.00;99.90;;;;;;4771762;29;20122;-86
2022/09/25 00:12:33;;;;;;;12.18;2.15;;;9.00;99.90;;;;;;4771792;29;20059;-86
2022/09/25 00:14:59;;;;;;;9.82;1.95;;;9.00;99.90;;;;;;4771727;29;20054;-87
2022/09/25 00:17:24;;;;;;;11.45;2.50;;;9.00;99.90;;;;;;4772289;29;20061;-86
2022/09/25 00:19:50;;;;;;;14.77;2.55;;;8.90;99.90;;;;;;4785688;29;20153;-87
2022/09/25 00:22:17;;;;;;;11.32;2.63;;;8.90;99.90;;;;;;4771941;29;20073;-87
2022/09/25 00:24:43;;;;;;;16.48;2.00;;;8.90;99.90;;;;;;4772117;29;20054;-86
2022/09/25 00:27:09;;;;;;;17.95;2.40;;;8.90;99.90;;;;;;4771029;29;20424;-87
2022/09/25 00:29:36;;;;;;;15.05;2.17;;;8.90;99.90;;;;;;4772278;29;20051;-87
2022/09/25 00:32:03;;;;;;;13.68;1.63;;;8.90;99.90;;;;;;4771773;29;20413;-87
2022/09/25 00:34:29;;;;;;;10.73;1.70;;;8.90;99.90;;;;;;4771181;29;20127;-86
2022/09/25 00:36:54;;;;;;;9.75;1.60;;;8.90;99.90;;;;;;4785862;29;20054;-87
2022/09/25 00:39:20;;;;;;;15.90;2.92;;;8.90;99.90;;;;;;4771355;29;20047;-87
2022/09/25 00:41:46;;;;;;;15.30;2.10;;;8.90;99.90;;;;;;4790699;29;20061;-86
2022/09/25 00:44:55;;;;;;;14.07;1.98;;;8.80;99.90;;;;;;4804344;29;20126;-86
2022/09/25 00:47:27;;;;;;;10.85;1.90;;;8.80;99.90;;;;;;4804561;29;20047;-86
2022/09/25 00:49:55;;;;;;;9.60;1.80;;;8.70;99.90;;;;;;4803604;29;20046;-87
2022/09/25 00:52:22;;;;;;;15.85;2.25;;;8.70;99.90;;;;;;4804412;29;20137;-86
2022/09/25 00:54:56;;;;;;;12.90;1.92;;;8.70;99.90;;;;;;4804101;29;20057;-87
2022/09/25 00:57:25;;;;;;;10.68;1.73;;;8.90;99.90;;;;;;4804035;29;20050;-87
2022/09/25 00:59:55;;;;;;;10.30;1.65;;;8.60;99.90;;;;;;4804523;29;20484;-87
2022/09/25 01:02:27;;;;;;;11.68;1.80;;;8.50;99.90;;;;;;4803878;29;20062;-88
2022/09/25 01:04:58;;;;;;;13.48;1.67;;;8.50;99.90;;;;;;4803898;29;20062;-87
2022/09/25 01:07:24;;;;;;;10.60;1.90;;;8.50;99.90;;;;;;4805227;29;20069;-88
2022/09/25 01:09:50;;;;;;;10.20;2.10;;;8.40;99.90;;;;;;4803106;29;20521;-87
2022/09/25 01:12:15;;;;;;;10.50;2.13;;;8.40;99.90;;;;;;4803981;29;20415;-86
2022/09/25 01:14:42;;;;;;;13.48;2.60;;;8.40;99.90;;;;;;4803590;29;20050;-86
2022/09/25 01:17:15;;;;;;;9.25;1.70;;;8.50;99.90;;;;;;4803274;29;20042;-86
2022/09/25 01:20:00;;;;;;;;;;;8.50;99.90;;;;;;4804340;29;20050;-86
2022/09/25 01:22:41;;;;;;;15.57;2.22;;;8.50;99.90;;;;;;4804238;29;20063;-87
2022/09/25 01:25:23;;;;;;;9.68;1.73;;;8.40;99.90;;;;;;4803754;29;20102;-86
2022/09/25 01:28:05;;;;;;;14.15;1.92;;;8.40;99.90;;;;;;4804341;29;20146;-86
2022/09/25 01:30:35;;;;;;;12.30;1.83;;;8.40;99.90;;;;;;4788807;29;20108;-86
2022/09/25 01:33:12;;;;;;;9.88;2.22;;;8.30;99.90;;;;;;4768113;30;20050;-86
2022/09/25 01:35:46;;;;;;;13.07;2.17;;;8.30;99.90;;;;;;4767411;30;20130;-87
2022/09/25 01:38:34;;;;;;;7.63;1.48;;;8.30;99.90;;;;;;4767822;30;20051;-88
2022/09/25 01:41:20;;;;;;;10.52;1.38;;;8.20;99.90;;;;;;4782338;30;20047;-86
2022/09/25 01:43:51;;;;;;;12.52;1.60;;;8.20;99.90;;;;;;4767670;30;20070;-87
2022/09/25 01:46:21;;;;;;;11.52;2.00;;;8.20;99.90;;;;;;4768193;30;20047;-87
2022/09/25 01:48:53;;;;;;;8.55;1.80;;;8.10;99.90;;;;;;4767991;30;20534;-87
2022/09/25 01:51:25;;;;;;;27.37;2.20;;;8.30;99.90;;;;;;4766659;30;20087;-87
2022/09/25 01:53:54;;;;;;;13.43;1.63;;;8.30;99.90;;;;;;4783112;30;20055;-86
2022/09/25 01:56:31;;;;;;;18.05;1.98;;;8.40;99.90;;;;;;4782116;30;20129;-87
2022/09/25 01:59:07;;;;;;;13.30;1.88;;;8.30;99.90;;;;;;4781864;30;20404;-87
2022/09/25 02:01:39;;;;;;;12.30;1.75;;;8.40;99.90;;;;;;4782533;30;20059;-86
2022/09/25 02:04:10;;;;;;;15.90;2.17;;;8.40;99.90;;;;;;4778167;30;20465;-86
2022/09/25 02:06:38;;;;;;;13.32;1.83;;;8.40;99.90;;;;;;4781337;30;20441;-86
2022/09/25 02:09:09;;;;;;;8.77;1.15;;;8.40;99.90;;;;;;4767950;30;20059;-87
2022/09/25 02:11:41;;;;;;;9.73;1.42;;;8.40;99.90;;;;;;4767623;30;20055;-87
2022/09/25 02:14:14;;;;;;;10.00;1.80;;;8.30;99.90;;;;;;4767568;30;20055;-87
2022/09/25 02:16:42;;;;;;;7.28;1.65;;;8.20;99.90;;;;;;4767652;30;20144;-86
2022/09/25 02:21:58;;;;;;;9.38;1.33;;;8.20;99.90;;;;;;4781391;30;20075;-86
2022/09/25 02:24:28;;;;;;;11.15;1.52;;;8.10;99.90;;;;;;4767475;30;20059;-87
2022/09/25 02:26:55;;;;;;;8.95;1.60;;;8.10;99.90;;;;;;4766147;30;20103;-87
2022/09/25 02:29:22;;;;;;;8.98;1.63;;;8.00;99.90;;;;;;4782538;30;20043;-86
2022/09/25 02:31:58;;;;;;;10.48;1.60;;;8.10;99.90;;;;;;4767304;30;20055;-87
2022/09/25 02:34:24;;;;;;;14.50;1.73;;;8.00;99.90;;;;;;4767112;30;20063;-87
2022/09/25 02:36:50;;;;;;;13.13;2.13;;;7.90;99.90;;;;;;4766305;30;20090;-87
2022/09/25 02:39:20;;;;;;;6.20;1.33;;;8.00;99.90;;;;;;4767566;30;20046;-87
2022/09/25 02:42:00;;;;;;;14.18;1.50;;;7.90;99.90;;;;;;4766176;30;20077;-87
2022/09/25 02:44:55;;;;;;;11.50;1.98;;;7.90;99.90;;;;;;4766945;30;20062;-87
2022/09/25 02:47:42;;;;;;;9.15;1.83;;;7.80;99.90;;;;;;4766989;30;20130;-87
2022/09/25 02:50:23;;;;;;;7.55;1.10;;;7.80;99.90;;;;;;4766887;30;20065;-88
2022/09/25 02:53:04;;;;;;;8.48;1.60;;;7.80;99.90;;;;;;4776238;29;20886;-87
2022/09/25 02:55:39;;;;;;;7.90;1.52;;;7.70;99.90;;;;;;4784761;29;20059;-87
2022/09/25 02:58:17;;;;;;;16.10;2.00;;;7.60;99.90;;;;;;4770764;29;20570;-86
2022/09/25 03:00:47;;;;;;;11.75;1.63;;;7.60;99.90;;;;;;4784502;29;20058;-87
2022/09/25 03:03:16;;;;;;;5.90;1.45;;;7.50;99.90;;;;;;4770384;29;20091;-87
2022/09/25 03:05:42;;;;;;;10.02;2.00;;;7.60;99.90;;;;;;4769419;29;20127;-88
2022/09/25 03:10:53;;;;;;;11.80;1.70;;;7.60;99.90;;;;;;4784846;29;20512;-87
2022/09/25 03:13:22;;;;;;;10.25;2.15;;;7.70;99.90;;;;;;4770042;29;20058;-87
2022/09/25 03:15:57;;;;;;;16.45;1.50;;;7.70;99.90;;;;;;4784497;29;20065;-86
2022/09/25 03:18:24;;;;;;;12.93;2.20;;;7.70;99.90;;;;;;4770097;29;20046;-87
2022/09/25 03:20:51;;;;;;;13.70;2.45;;;7.80;99.90;;;;;;4768946;29;20116;-86
2022/09/25 03:23:17;;;;;;;21.35;2.40;;;7.90;99.90;;;;;;4769547;29;20054;-86
2022/09/25 03:25:43;;;;;;;21.08;3.25;;;8.00;99.90;;;;;;4769635;29;20098;-87
2022/09/25 03:28:10;;;;;;;15.27;2.17;;;8.00;99.90;;;;;;4784629;29;20090;-88
2022/09/25 03:30:39;;;;;;;12.45;2.85;;;8.10;99.90;;;;;;4769689;29;20461;-86
2022/09/25 03:33:06;;;;;;;9.60;2.55;;;8.20;99.90;;;;;;4772192;29;20057;-87
2022/09/25 03:35:32;;;;;;;15.45;1.95;;;8.20;99.90;;;;;;4773073;29;20061;-87
2022/09/25 03:37:58;;;;;;;8.77;1.55;;;8.30;99.90;;;;;;4787490;29;20849;-88
2022/09/25 03:40:23;;;;;;;13.73;1.80;;;8.30;99.90;;;;;;4787895;29;20092;-87
2022/09/25 03:42:49;;;;;;;13.10;2.38;;;8.50;99.90;;;;;;4788224;29;20199;-87
2022/09/25 03:45:15;;;;;;;13.27;2.03;;;8.50;99.90;;;;;;4787564;29;20047;-87
2022/09/25 03:47:40;;;;;;;12.05;2.25;;;8.60;99.90;;;;;;4788596;29;20050;-88
2022/09/25 03:50:07;;;;;;;11.98;2.20;;;8.60;99.90;;;;;;4787704;29;20412;-88
2022/09/25 03:52:33;;;;;;;10.15;1.95;;;8.70;99.90;;;;;;4773314;29;20404;-87
2022/09/25 03:54:59;;;;;;;20.23;3.58;;;8.80;99.90;;;;;;4773672;29;20055;-88
2022/09/25 03:57:25;;;;;;;9.02;2.03;;;8.70;99.90;;;;;;4788247;29;20051;-89
2022/09/25 03:59:51;;;;;;;15.05;1.90;;;8.70;99.90;;;;;;4788213;29;20055;-87
2022/09/25 04:02:17;;;;;;;7.43;1.95;;;8.70;99.90;;;;;;4772942;29;20051;-88
2022/09/25 04:04:44;;;;;;;14.48;2.05;;;8.60;99.90;;;;;;4772372;29;20509;-86
2022/09/25 04:07:11;;;;;;;8.27;1.80;;;8.60;99.90;;;;;;4773085;29;20051;-88
2022/09/25 04:09:37;;;;;;;10.75;2.30;;;8.60;99.90;;;;;;4773222;29;20035;-88
2022/09/25 04:12:05;;;;;;;9.80;1.83;;;8.60;99.90;;;;;;4772948;29;20057;-88
2022/09/25 04:14:31;;;;;;;13.55;2.05;;;8.50;99.90;;;;;;4773067;29;20465;-88
2022/09/25 04:16:56;;;;;;;15.32;1.90;;;8.60;99.90;;;;;;4772969;29;20043;-88
2022/09/25 04:19:22;;;;;;;9.73;1.88;;;8.50;99.90;;;;;;4772717;29;20146;-87
2022/09/25 04:21:48;;;;;;;16.77;1.98;;;8.40;99.90;;;;;;4772122;29;20054;-88
2022/09/25 04:26:57;;;;;;;10.07;2.03;;;8.30;99.90;;;;;;4783947;29;20087;-88
2022/09/25 04:29:23;;;;;;;10.00;1.60;;;8.30;99.90;;;;;;4769511;30;20082;-88
2022/09/25 04:33:45;;;;;;;13.48;1.75;;;8.20;99.90;;;;;;4754720;30;20054;-87
2022/09/25 04:34:35;;;;;;;12.35;1.98;;;8.10;99.90;;;;;;4769522;30;20424;-87
2022/09/25 04:37:01;;;;;;;10.75;1.88;;;8.00;99.90;;;;;;4753938;30;20048;-88
2022/09/25 04:39:27;;;;;;;8.30;1.52;;;7.90;99.90;;;;;;4754804;30;20071;-87
2022/09/25 04:41:53;;;;;;;8.38;1.50;;;7.90;99.90;;;;;;4768391;30;20059;-88
2022/09/25 04:44:18;;;;;;;6.60;1.70;;;7.90;99.90;;;;;;4754545;30;20059;-87
2022/09/25 04:46:44;;;;;;;9.82;1.67;;;7.80;99.90;;;;;;4768330;30;20496;-87
2022/09/25 04:49:10;;;;;;;6.90;1.40;;;7.70;99.90;;;;;;4769382;30;20373;-87
2022/09/25 04:51:36;;;;;;;8.80;1.60;;;7.50;99.90;;;;;;4769320;30;20515;-86
2022/09/25 04:54:01;;;;;;;7.63;1.58;;;7.50;99.90;;;;;;4769466;30;20047;-88
2022/09/25 04:56:27;;;;;;;6.78;1.80;;;7.40;99.90;;;;;;4784163;30;20047;-87
2022/09/25 04:58:53;;;;;;;6.45;1.40;;;7.30;99.90;;;;;;4768771;30;20059;-87
2022/09/25 05:01:19;;;;;;;4.22;0.90;;;7.20;99.90;;;;;;4768231;30;20054;-87
2022/09/25 05:03:49;;;;;;;7.60;1.25;;;7.50;99.90;;;;;;4768943;30;20047;-87
2022/09/25 05:06:15;;;;;;;11.63;1.58;;;7.20;99.90;;;;;;4768474;30;20104;-87
2022/09/25 05:08:41;;;;;;;4.38;0.80;;;7.50;99.90;;;;;;4753577;30;20051;-88
2022/09/25 05:11:07;;;;;;;3.67;0.77;;;7.20;99.90;;;;;;4769148;30;20062;-87
2022/09/25 05:13:33;;;;;;;7.00;1.50;;;7.10;99.90;;;;;;4769033;30;20048;-87
2022/09/25 05:15:59;;;;;;;8.90;1.52;;;7.00;99.90;;;;;;4769192;30;20548;-88
2022/09/25 05:18:25;;;;;;;52.80;2.85;;;7.10;99.90;;;;;;4769042;30;20683;-88
2022/09/25 05:20:53;;;;;;;13.90;2.63;;;7.00;99.90;;;;;;4753543;30;20050;-88
2022/09/25 05:23:20;;;;;;;13.02;1.77;;;7.00;99.90;;;;;;4768610;30;20097;-88
2022/09/25 05:25:52;;;;;;;7.28;2.40;;;7.00;99.90;;;;;;4773852;29;20095;-87
2022/09/25 05:28:17;;;;;;;11.68;3.53;;;7.00;99.90;;;;;;4786437;29;20539;-88
2022/09/25 05:30:43;;;;;;;8.50;2.20;;;7.10;99.90;;;;;;4786206;29;20152;-88
2022/09/25 05:33:09;;;;;;;8.18;1.75;;;7.10;99.90;;;;;;4787190;29;20046;-87
2022/09/25 05:35:35;;;;;;;5.28;1.63;;;7.10;99.90;;;;;;4786005;29;20061;-88
2022/09/25 05:38:01;;;;;;;6.22;1.90;;;7.00;99.90;;;;;;4786516;29;20050;-88
2022/09/25 05:40:27;;;;;;;9.25;2.35;;;7.00;99.90;;;;;;4786107;29;20053;-88
2022/09/25 05:42:54;;;;;;;10.07;2.08;;;7.00;99.90;;;;;;4785941;29;20560;-88
2022/09/25 05:45:22;;;;;;;9.30;2.75;;;7.00;99.90;;;;;;4786328;29;20038;-88
2022/09/25 05:48:08;;;;;;;8.38;2.15;;;7.00;99.90;;;;;;4786721;29;20042;-89
2022/09/25 05:50:34;;;;;;;12.50;2.85;;;7.10;99.90;;;;;;4786807;29;20050;-89
2022/09/25 05:53:02;;;;;;;5.63;2.05;;;7.00;99.90;;;;;;4781088;29;20070;-88
2022/09/25 05:55:31;;;;;;;6.68;2.35;;;7.00;99.90;;;;;;4778317;29;20046;-88
2022/09/25 05:58:02;;;;;;;8.18;2.70;;;7.00;99.90;;;;;;4777586;29;20046;-87
2022/09/25 06:00:30;;;;;;;11.43;2.90;;;7.00;99.90;;;;;;4780948;29;20051;-88
2022/09/25 06:02:58;;;;;;;8.70;2.25;;;7.10;99.90;;;;;;4776415;29;20051;-88
2022/09/25 06:05:24;;;;;;;10.07;2.92;;;7.00;99.90;;;;;;4764435;29;20158;-88
2022/09/25 06:07:53;;;;;;;11.02;2.97;;;7.00;99.90;;;;;;4786819;29;20166;-88
2022/09/25 06:10:19;;;;;;;7.78;2.30;;;7.10;99.90;;;;;;4786382;29;20496;-87
2022/09/25 06:12:45;;;;;;;8.32;2.85;;;7.00;99.90;;;;;;4786527;29;20062;-88
2022/09/25 06:15:10;;;;;;;18.08;2.75;;;7.10;99.90;;;;;;4785823;29;20055;-88
2022/09/25 06:17:36;;;;;;;8.25;2.83;;;7.10;99.90;;;;;;4779735;29;20047;-88
2022/09/25 06:20:02;;;;;;;4.60;2.10;;;7.20;99.90;;;;;;4785763;29;20488;-88
2022/09/25 06:22:29;;;;;;;12.63;2.65;;;7.30;99.90;;;;;;4771530;29;20051;-88
2022/09/25 06:24:58;;;;;;;10.05;2.55;;;7.30;99.90;;;;;;4786574;29;20061;-88
2022/09/25 06:27:23;;;;;;;11.25;2.13;;;7.30;99.90;;;;;;4785962;29;20067;-88
2022/09/25 06:29:49;;;;;;;8.57;1.85;;;7.30;99.90;;;;;;4786454;29;20466;-88
2022/09/25 06:32:15;;;;;;;10.10;2.38;;;7.30;99.90;;;;;;4786051;29;20442;-88
2022/09/25 06:34:41;;;;;;;13.38;3.10;;;7.40;99.90;;;;;;4771211;29;20057;-87
2022/09/25 06:37:07;;;;;;;9.23;2.60;;;7.40;99.90;;;;;;4786224;29;20055;-89
2022/09/25 06:39:33;;;;;;;9.30;2.55;;;7.50;99.90;;;;;;4771363;29;20043;-89
2022/09/25 06:41:59;;;;;;;13.15;3.25;;;7.60;99.90;;;;;;4771320;29;20113;-88
2022/09/25 06:44:27;;;;;;;10.55;2.53;;;7.60;99.90;;;;;;4776632;24;20070;-88
2022/09/25 06:46:53;;;;;;;8.95;2.63;;;7.80;99.90;;;;;;4755210;30;20055;-87
2022/09/25 06:49:20;;;;;;;10.98;2.50;;;7.80;99.90;;;;;;4757519;30;20076;-87
2022/09/25 06:51:45;;;;;;;8.10;2.42;;;7.90;99.90;;;;;;4763195;30;20138;-87
2022/09/25 06:54:11;;;;;;;7.85;2.53;;;8.00;99.90;;;;;;4764200;30;20130;-88
2022/09/25 06:56:37;;;;;;;70.60;10.10;;;8.10;99.90;;;;;;4764213;30;20408;-88
2022/09/25 06:59:03;;;;;;;92.40;12.55;;;8.10;99.90;;;;;;4764612;30;20055;-87
2022/09/25 07:01:29;;;;;;;49.38;6.72;;;8.20;99.90;;;;;;4763265;30;20051;-87
2022/09/25 07:03:55;;;;;;;43.15;5.25;;;8.30;99.90;;;;;;4782226;29;20057;-87
2022/09/25 07:06:24;;;;;;;74.18;9.88;;;8.40;99.90;;;;;;4784273;29;20447;-88
2022/09/25 07:08:51;;;;;;;14.00;2.60;;;8.60;99.90;;;;;;4772699;29;20050;-88
2022/09/25 07:11:19;;;;;;;26.45;4.53;;;8.70;99.90;;;;;;4773220;29;20054;-89
2022/09/25 07:13:45;;;;;;;12.80;2.88;;;8.90;99.90;;;;;;4788188;29;20073;-89
2022/09/25 07:16:15;;;;;;;14.30;1.95;;;9.10;99.90;;;;;;4772877;29;20059;-88
2022/09/25 07:18:42;;;;;;;15.85;2.15;;;9.30;99.90;;;;;;4772556;29;20115;-88
2022/09/25 07:21:14;;;;;;;18.83;3.35;;;9.40;99.90;;;;;;4769193;30;20521;-87
2022/09/25 07:23:47;;;;;;;13.25;2.33;;;9.60;99.90;;;;;;4768697;30;20092;-87
2022/09/25 07:26:14;;;;;;;;;;;9.80;99.90;;;;;;4770005;30;20055;-88
2022/09/25 07:28:47;;;;;;;8.50;1.50;;;10.20;99.90;;;;;;4768874;30;20391;-87
2022/09/25 07:31:19;;;;;;;10.65;1.63;;;10.30;99.90;;;;;;4774453;29;20145;-88
2022/09/25 07:33:45;;;;;;;12.45;1.30;;;10.80;99.90;;;;;;4764399;29;20050;-88
2022/09/25 07:36:12;;;;;;;10.13;1.55;;;11.00;99.90;;;;;;4791912;29;20046;-88
2022/09/25 07:38:39;;;;;;;9.07;1.10;;;11.30;99.90;;;;;;4779014;29;20043;-88
2022/09/25 07:41:06;;;;;;;11.60;1.20;;;11.70;99.90;;;;;;4776498;29;20093;-88
2022/09/25 07:43:33;;;;;;;12.35;1.45;;;11.90;99.90;;;;;;4763691;29;20055;-87
2022/09/25 07:45:59;;;;;;;7.28;1.15;;;12.20;99.90;;;;;;4763860;29;20050;-88
2022/09/25 07:48:26;;;;;;;14.55;2.50;;;12.40;99.90;;;;;;4777688;29;20057;-89
2022/09/25 07:50:59;;;;;;;10.38;1.20;;;12.60;99.90;;;;;;4775058;29;20063;-89
2022/09/25 07:53:24;;;;;;;;;;;12.70;99.90;;;;;;4780418;30;20051;-88
2022/09/25 07:55:50;;;;;;;14.45;1.45;;;12.80;99.90;;;;;;4769466;30;19940;-88
2022/09/25 07:58:18;;;;;;;9.88;1.33;;;12.90;99.90;;;;;;4758631;29;20039;-88
2022/09/25 08:00:44;;;;;;;6.07;1.65;;;12.90;99.90;;;;;;4762220;29;20055;-88
2022/09/25 08:03:10;;;;;;;9.90;1.20;;;12.90;99.90;;;;;;4762805;29;20054;-87
2022/09/25 08:05:36;;;;;;;9.85;1.40;;;12.90;99.90;;;;;;4792844;29;20141;-88
2022/09/25 08:08:02;;;;;;;7.53;0.93;;;12.90;99.90;;;;;;4759428;29;20125;-88
2022/09/25 08:10:28;;;;;;;6.63;0.93;;;12.90;99.90;;;;;;4759361;29;20058;-88
2022/09/25 08:12:54;;;;;;;8.40;0.93;;;12.90;99.90;;;;;;4763301;29;20472;-88
2022/09/25 08:15:20;;;;;;;6.63;0.70;;;13.00;99.90;;;;;;4763778;29;20400;-88
2022/09/25 08:17:45;;;;;;;9.85;1.17;;;13.00;99.90;;;;;;4761580;29;20599;-88
2022/09/25 08:20:11;;;;;;;10.85;1.05;;;13.10;99.90;;;;;;4771756;29;20145;-88
2022/09/25 08:22:37;;;;;;;6.60;0.93;;;13.20;99.90;;;;;;4768397;29;20058;-88
2022/09/25 08:25:04;;;;;;;11.85;1.02;;;13.20;99.90;;;;;;4761650;30;20059;-87
2022/09/25 08:27:30;;;;;;;6.07;1.35;;;13.30;99.90;;;;;;4769083;30;20398;-89
2022/09/25 08:30:02;;;;;;;15.35;1.65;;;13.40;99.90;;;;;;4768715;30;20048;-90
2022/09/25 08:32:28;;;;;;;6.13;1.67;;;13.60;99.90;;;;;;4782449;29;20086;-88
2022/09/25 08:34:54;;;;;;;8.52;1.30;;;13.80;99.90;;;;;;4784541;29;20090;-88
2022/09/25 08:37:20;;;;;;;15.65;9.70;;;14.00;99.90;;;;;;4786916;29;20406;-88
2022/09/25 08:39:45;;;;;;;11.98;1.30;;;14.20;99.90;;;;;;4785218;29;20576;-86
2022/09/25 08:42:19;;;;;;;8.30;1.90;;;14.40;99.90;;;;;;4786629;29;20059;-86
2022/09/25 08:49:00;;;;;;;6.60;0.90;;;14.50;99.90;;;;;;4786368;29;20119;-87
2022/09/25 08:50:32;;;;;;;9.32;1.88;;;14.60;99.90;;;;;;4785524;29;20047;-85
2022/09/25 08:53:07;;;;;;;6.03;0.88;;;14.40;99.90;;;;;;4785951;29;20108;-87
2022/09/25 08:56:32;;;;;;;7.50;1.35;;;14.20;99.90;;;;;;4787078;29;20053;-88
2022/09/25 09:03:45;;;;;;;;;;;;;;;;;;;;;
2022/09/25 09:07:44;;;;;;;;;;;;;;;;;;;;;
2022/09/25 09:14:31;;;;;;;21.67;3.13;;;13.00;99.90;;;;;;4786024;29;20141;-88
2022/09/25 09:17:16;;;;;;;;;;;;;;;;;;;;;
2022/09/25 09:20:36;;;;;;;8.48;1.30;;;13.00;99.90;;;;;;4785898;29;20080;-88
2022/09/25 09:22:51;;;;;;;7.65;1.23;;;13.00;99.90;;;;;;4780084;29;20133;-88
2022/09/25 09:25:46;;;;;;;4.85;0.77;;;13.00;99.90;;;;;;4787510;29;20067;-88
2022/09/25 09:28:33;;;;;;;2.60;0.68;;;13.00;99.90;;;;;;4784551;29;20516;-88
2022/09/25 09:31:18;;;;;;;5.78;1.15;;;13.10;99.90;;;;;;4777985;29;20054;-88
2022/09/25 09:41:01;;;;;;;4.78;0.73;;;12.80;99.90;;;;;;4765979;29;20047;-90
2022/09/25 09:43:42;;;;;;;5.60;0.75;;;12.40;99.90;;;;;;4785474;29;20069;-89
2022/09/25 09:47:12;;;;;;;5.75;0.55;;;12.50;99.90;;;;;;4770653;29;20059;-89
2022/09/25 09:50:00;;;;;;;;;;;;;;;;;;;;;
2022/09/25 09:55:46;;;;;;;6.53;0.95;;;12.60;99.90;;;;;;4782832;29;20123;-90
2022/09/25 09:58:46;;;;;;;4.22;0.65;;;12.70;99.90;;;;;;4753611;30;20051;-91
2022/09/25 10:01:21;;;;;;;3.35;0.85;;;12.70;99.90;;;;;;4753353;30;20055;-91
2022/09/25 10:03:55;;;;;;;8.70;0.80;;;12.80;99.90;;;;;;4753709;30;20203;-91
2022/09/25 10:06:50;;;;;;;6.13;0.82;;;12.90;99.90;;;;;;4753302;30;20137;-89
2022/09/25 10:09:42;;;;;;;5.70;0.65;;;12.90;99.90;;;;;;4753669;30;20055;-89
2022/09/25 10:12:32;;;;;;;7.20;0.80;;;13.10;99.90;;;;;;4783233;30;20105;-87
2022/09/25 10:15:27;;;;;;;6.97;0.93;;;13.30;99.90;;;;;;4770391;30;20154;-88
2022/09/25 10:32:03;;;;;;;4.90;0.75;;;14.00;99.90;;;;;;4814010;29;20081;-88
2022/09/25 10:34:30;;;;;;;7.78;0.90;;;14.00;99.90;;;;;;4789558;29;20868;-87
2022/09/25 10:40:39;;;;;;;19.05;3.28;;;14.30;99.90;;;;;;4988006;24;20088;-89
2022/09/25 10:43:28;;;;;;;18.55;2.85;;;14.20;99.90;;;;;;4823575;29;20092;-88
2022/09/25 10:46:11;;;;;;;11.93;1.50;;;14.70;99.90;;;;;;4808772;29;20407;-89
2022/09/25 10:51:24;;;;;;;4.40;0.60;;;15.10;99.90;;;;;;4808303;29;20051;-89
2022/09/25 10:53:58;;;;;;;5.35;0.60;;;15.30;99.90;;;;;;4808153;29;20053;-89
2022/09/25 10:56:37;;;;;;;19.33;1.73;;;15.30;99.90;;;;;;4808660;29;20133;-90
2022/09/25 10:59:15;;;;;;;7.40;1.00;;;15.50;99.90;;;;;;4823339;29;20476;-89
2022/09/25 11:01:42;;;;;;;9.50;1.00;;;15.50;99.90;;;;;;4823546;29;20146;-92
2022/09/25 11:04:15;;;;;;;5.30;0.70;;;15.50;99.90;;;;;;4822475;29;20258;-91
2022/09/25 11:06:51;;;;;;;4.32;0.60;;;15.40;99.90;;;;;;4831385;29;20085;-93
2022/09/25 11:09:28;;;;;;;8.13;1.13;;;15.40;99.90;;;;;;4826912;29;20058;-92
2022/09/25 11:12:12;;;;;;;9.70;0.85;;;15.40;99.90;;;;;;4810837;29;20046;-92
2022/09/25 11:14:54;;;;;;;5.05;0.77;;;15.30;99.90;;;;;;4811516;29;20085;-92
2022/09/25 11:17:34;;;;;;;3.17;0.50;;;15.20;99.90;;;;;;4826374;29;20046;-90
2022/09/25 11:20:16;;;;;;;6.28;0.75;;;15.10;99.90;;;;;;4810485;29;20056;-92
2022/09/25 11:22:56;;;;;;;4.22;0.50;;;15.00;99.90;;;;;;4803096;29;20062;-92
2022/09/25 11:25:33;;;;;;;2.00;0.28;;;15.00;99.90;;;;;;4820618;29;20098;-92
2022/09/25 11:28:12;;;;;;;1.55;0.35;;;15.00;99.90;;;;;;4804836;29;20547;-93
2022/09/25 11:30:53;;;;;;;3.03;0.30;;;15.20;99.90;;;;;;4805719;29;20085;-91
2022/09/25 11:33:47;;;;;;;2.75;0.40;;;15.40;99.90;;;;;;4805522;29;20496;-92
2022/09/25 11:36:28;;;;;;;16.23;0.75;;;15.60;99.90;;;;;;4804496;29;20051;-93
2022/09/25 11:41:56;;;;;;;9.20;0.73;;;16.00;99.90;;;;;;4818187;29;20059;-89
2022/09/25 11:44:31;;;;;;;15.25;0.82;;;16.10;99.90;;;;;;4805133;29;20054;-92
2022/09/25 11:47:19;;;;;;;6.65;0.60;;;16.00;99.90;;;;;;4819197;29;20496;-95
2022/09/25 11:49:50;;;;;;;17.40;1.40;;;15.90;99.90;;;;;;4804239;29;20133;-92
2022/09/25 11:52:39;;;;;;;4.13;0.57;;;15.80;99.90;;;;;;4822312;29;20082;-91
2022/09/25 11:55:35;;;;;;;9.40;0.65;;;15.70;99.90;;;;;;4792283;29;20074;-92
2022/09/25 11:58:20;;;;;;;3.60;0.40;;;15.70;99.90;;;;;;4792520;29;20046;-91
2022/09/25 12:01:05;;;;;;;3.40;0.40;;;15.80;99.90;;;;;;4808060;29;20392;-91
2022/09/25 12:03:53;;;;;;;1.55;0.20;;;16.00;99.90;;;;;;4807725;29;20050;-93
2022/09/25 12:06:54;;;;;;;3.08;0.50;;;16.00;99.90;;;;;;4791333;29;20066;-92
2022/09/25 12:09:53;;;;;;;4.20;0.60;;;16.10;99.90;;;;;;4807881;29;20138;-92
2022/09/25 12:12:26;;;;;;;6.93;1.38;;;16.10;99.90;;;;;;4807330;29;20112;-91
2022/09/25 12:15:04;;;;;;;5.88;0.43;;;16.10;99.90;;;;;;4822220;29;20050;-92
2022/09/25 12:17:38;;;;;;;11.48;0.85;;;16.10;99.90;;;;;;4822077;29;20053;-91
2022/09/25 12:20:25;;;;;;;3.25;0.43;;;16.10;99.90;;;;;;4822369;29;20046;-91
2022/09/25 12:22:54;;;;;;;5.45;0.57;;;16.10;99.90;;;;;;4822596;29;20062;-91
2022/09/25 12:25:29;;;;;;;50.40;2.55;;;16.00;99.90;;;;;;4822927;29;20115;-91
2022/09/25 12:28:09;;;;;;;36.20;2.00;;;16.00;99.90;;;;;;4821509;29;20054;-92
2022/09/25 12:30:57;;;;;;;12.35;0.80;;;16.00;99.90;;;;;;4822248;29;20062;-93
2022/09/25 12:33:48;;;;;;;49.47;3.00;;;16.00;99.90;;;;;;4821658;29;20145;-93
2022/09/25 12:36:24;;;;;;;7.05;0.70;;;15.90;99.90;;;;;;4821420;29;20059;-94
2022/09/25 12:38:54;;;;;;;27.05;1.73;;;15.90;99.90;;;;;;4820380;29;20047;-95
2022/09/25 12:41:33;;;;;;;5.57;0.70;;;15.90;99.90;;;;;;4820237;29;20117;-94
2022/09/25 12:44:05;;;;;;;4.50;0.70;;;15.90;99.90;;;;;;4805782;29;20076;-94
2022/09/25 12:46:41;;;;;;;18.85;1.42;;;15.80;99.90;;;;;;4805371;29;20195;-93
2022/09/25 12:49:33;;;;;;;26.35;1.15;;;15.80;99.90;;;;;;4820381;29;20404;-91
2022/09/25 12:52:12;;;;;;;12.68;0.98;;;15.80;99.90;;;;;;4804475;29;20098;-92
2022/09/25 12:54:44;;;;;;;7.38;0.80;;;15.80;99.90;;;;;;4805425;29;20456;-92
2022/09/25 12:57:18;;;;;;;7.28;0.88;;;15.70;99.90;;;;;;4805490;29;20142;-93
2022/09/25 12:59:51;;;;;;;14.25;0.98;;;15.70;99.90;;;;;;4804781;29;20102;-91
2022/09/25 13:02:30;;;;;;;;;;;15.80;99.90;;;;;;4805695;29;20102;-92
2022/09/25 13:05:01;;;;;;;5.07;0.40;;;15.80;99.90;;;;;;4804179;29;20015;-92
2022/09/25 13:07:44;;;;;;;2.63;0.22;;;15.90;99.90;;;;;;4820295;29;20117;-93
2022/09/25 13:10:29;;;;;;;3.40;0.50;;;15.90;99.90;;;;;;4804910;29;20046;-93
2022/09/25 13:13:00;;;;;;;2.72;0.30;;;16.00;99.90;;;;;;4804419;29;20055;-93
2022/09/25 13:15:31;;;;;;;8.05;0.52;;;16.00;99.90;;;;;;4805415;29;20165;-92
2022/09/25 13:18:00;;;;;;;6.03;0.55;;;16.00;99.90;;;;;;4804951;29;20110;-91
2022/09/25 13:20:25;;;;;;;7.85;0.65;;;15.90;99.90;;;;;;4803899;29;20058;-92
2022/09/25 13:23:14;;;;;;;3.42;0.50;;;15.90;99.90;;;;;;4804585;29;20111;-92
2022/09/25 13:25:54;;;;;;;5.13;0.50;;;15.90;99.90;;;;;;4804871;29;20063;-91
2022/09/25 13:28:25;;;;;;;5.47;0.63;;;15.90;99.90;;;;;;4788834;29;20061;-91
2022/09/25 13:31:01;;;;;;;6.72;0.93;;;15.90;99.90;;;;;;4789592;29;20058;-93
2022/09/25 13:33:27;;;;;;;7.70;0.60;;;15.90;99.90;;;;;;4789921;29;20046;-93
2022/09/25 13:36:09;;;;;;;4.13;0.47;;;15.90;99.90;;;;;;4788284;29;20054;-92
2022/09/25 13:41:31;;;;;;;4.18;0.68;;;15.70;99.90;;;;;;4803529;29;20488;-91
2022/09/25 13:44:38;;;;;;;4.20;0.60;;;15.60;99.90;;;;;;4789602;29;20149;-92
2022/09/25 13:47:22;;;;;;;1.85;0.32;;;15.60;99.90;;;;;;4804855;29;20088;-91
2022/09/25 13:49:51;;;;;;;7.10;0.55;;;15.50;99.90;;;;;;4803160;29;20073;-91
2022/09/25 13:52:34;;;;;;;5.28;0.50;;;15.60;99.90;;;;;;4804514;29;20054;-91
2022/09/25 13:55:18;;;;;;;1.95;0.30;;;15.60;99.90;;;;;;4819968;29;20142;-93
2022/09/25 13:57:57;;;;;;;3.45;0.52;;;15.60;99.90;;;;;;4804847;29;20258;-93
2022/09/25 14:00:25;;;;;;;5.93;0.77;;;15.50;99.90;;;;;;4804101;29;20479;-90
2022/09/25 14:03:00;;;;;;;7.15;0.60;;;15.50;99.90;;;;;;4820721;29;20145;-91
2022/09/25 14:05:34;;;;;;;3.35;0.40;;;15.60;99.90;;;;;;4819482;29;20050;-93
2022/09/25 14:08:07;;;;;;;5.07;0.52;;;15.70;99.90;;;;;;4822361;29;20122;-96
2022/09/25 14:10:34;;;;;;;3.88;0.50;;;15.80;99.90;;;;;;4822679;29;20042;-96
2022/09/25 14:13:01;;;;;;;4.13;0.40;;;15.70;99.90;;;;;;4789146;29;20081;-90
2022/09/25 14:15:34;;;;;;;6.20;0.60;;;15.70;99.90;;;;;;4788595;29;20092;-91
2022/09/25 14:18:04;;;;;;;5.95;0.50;;;15.70;99.90;;;;;;4788942;29;20089;-92